Portada
METAR-TAF:

METAR-TAF

Aeropuertos :

Wittmund, Alemania

latitud: 53-33N, longitud: 007-40E, altitud: 8 m

Observación

El informe se hizo hace 20 minutos, a las 11:20 UTC
Viento 12 kt del este
Temperatura 19°C
Humedad 43%
Presión 1022 hPa
Visibilidad: 8000 m

METAR: ETNT 191120Z AUTO 09012KT 8000 // ////// 19/06 Q1022 ///

Hora: 13:40 (11:40 UTC)

Pronóstico

El informe se hizo hace 28 horas y 20 minutos, a las 07:20 UTC
Pronóstico válido del 18 a las 08 UTC al 18 a las 17 UTC
Viento 10 kt del este
Visibilidad 10 km o más
Nubes dispersas a una altura de 28000 ft

TAF: ETNT 180720Z 1808/1817 09010KT 9999 NSW SCT280 BY ETGL

Observaciones y pronósticos meteorológicos de más de 4000 aeropuertos (mensajes METAR y TAF).

Los puntos amarillos y rojos representan las estaciones disponibles.

Ponga el ratón en el punto deseado para ver el nombre de la estación.

Haga clic para ver las observaciones y los pronósticos meteorológicos.

Para cambiar el mapa : haga clic en los botones verdes con una cruz de color negro para hacer un zoom, en el botón verde con un guión para alejar o en las flechas verdes para mapas adyacentes.


METAR-TAF: